Create Custom Reports and Graphics: Custom Report

Upper Lake

Current Conditions

5/25/20 8:15 PM (-07:00)
Updated Every 15 Minutes
Temp 78.5 °F   0.2
Daily Max Temp 92.9 °F   3.5
Daily Min Temp 51.0 °F   4.2
Daily Rain 0.00 In
RH 47 %   15
Dew Pt 56.4 °F   10.8
Wet Bulb 64.0 °F   5.9
Wind Dir W | 273 °
Wind Spd 4.1 mph   0.9
Wind Gust 8.3 mph   4.5
Leaf Wet 0.0 mins
BatVolt 12.6 V   0.0

Today & Yesterday

Upper Lake

5/25/20 8:15 PM (-07:00)
Updated Every 15 Minutes
Daily Max Temp 92.9 °F   3.5
Daily Min Temp 51.0 °F   4.2
Daily Max Wind 16.0 mph   0.4
Max Wind Time 1847
Max Wind Dir WNW | 303 °
Daily Leaf Wet Hrs 1.6 hrs   1.6
Daily Rain 0.00 In
Max Temp Yest 89.4 °F
Min Temp Yest 46.8 °F
Max Wind Yest 16.5 mph
Leaf Wet Hrs Yest 3.2 Hours
Rain Yest 0.00 In

Rainfall Report

Upper Lake

5/25/20 8:15 PM (-07:00)
Updated Every 15 Minutes
Latest Rain 0.00 In
Daily Rain 0.00 In
Rain Yest 0.00 In
Monthly Rain 1.49 In
Seasonal Rainfall 16.53 In

Last 48 Hours

Upper Lake

Hourly Data | America/Los_Angeles
as of 5/25/20 8:27 PM PDT
Date & Time Temp (°F) Temp2 (°F) RH (%) Dew Pt (°F) Wet Bulb (°F) Wind Dir (°) Wind Spd (mph) Wind Gust (mph) Leaf Wet (mins) Latest Rain (In) Daily Rain (In) Daily Max Temp (°F) Daily Min Temp (°F) Daily Leaf Wet Hrs (hrs)
5/25/20 - 2000 83.6 83.3 36 53.3 63.1 WNW | 282 5.1 11.5 0.0 0.00 0.00 92.9 51.0 1.6
5/25/20 - 1900 87.0 86.9 30 52.0 62.9 W | 280 7.3 16.2 0.0 0.00 0.00 92.9 51.0 1.6
5/25/20 - 1800 89.7 89.7 28 52.5 63.6 WNW | 287 8.1 16.2 0.0 0.00 0.00 92.9 51.0 1.6
5/25/20 - 1700 91.5 91.5 26 51.4 63.3 WNW | 296 6.8 15.4 0.0 0.00 0.00 92.9 51.0 1.6
5/25/20 - 1600 91.9 91.9 24 50.4 62.8 WNW | 300 5.9 15.0 0.0 0.00 0.00 92.9 51.0 1.6
5/25/20 - 1500 91.1 91.1 22 47.2 61.3 W | 270 5.4 13.2 0.0 0.00 0.00 91.8 51.0 1.6
5/25/20 - 1400 90.2 90.2 22 46.4 60.9 WSW | 247 4.4 11.0 0.0 0.00 0.00 91.6 51.0 1.6
5/25/20 - 1300 88.9 87.8 30 53.4 64.0 S | 173 4.5 8.3 0.0 0.00 0.00 89.9 51.0 1.6
5/25/20 - 1200 85.3 83.9 33 52.7 63.1 S | 172 3.4 6.9 0.0 0.00 0.00 87.4 51.0 1.6
5/25/20 - 1100 80.2 79.3 42 55.2 63.6 SE | 144 2.7 5.8 0.0 0.00 0.00 83.0 51.0 1.6
5/25/20 - 1000 76.3 74.7 49 55.9 63.3 SSE | 154 2.3 5.3 0.0 0.00 0.00 78.3 51.0 1.6
5/25/20 - 0900 69.1 69.3 66 57.0 62.3 E | 91 1.5 3.4 0.0 0.00 0.00 73.1 51.0 1.6
5/25/20 - 0800 60.7 61.4 84 55.8 58.9 ENE | 58 0.8 2.1 0.0 0.00 0.00 65.6 51.0 1.6
5/25/20 - 0700 53.1 53.5 100 53.1 54.2 N | 8 0.8 3.6 42.2 0.00 0.00 58.5 51.0 1.6
5/25/20 - 0600 52.2 52.1 100 52.2 53.3 NNE | 15 0.8 3.9 52.8 0.00 0.00 58.5 51.6 0.9
5/25/20 - 0500 52.9 52.8 100 52.9 54.0 W | 281 0.6 2.8 0.0 0.00 0.00 58.5 52.4 0.0
5/25/20 - 0400 53.7 53.5 100 53.7 54.8 WNW | 300 0.9 3.1 0.0 0.00 0.00 58.5 52.9 0.0
5/25/20 - 0300 55.3 55.1 98 54.8 56.2 NW | 310 0.7 3.0 0.0 0.00 0.00 58.5 54.1 0.0
5/25/20 - 0200 57.2 57.0 95 55.7 57.6 NNW | 337 1.2 3.7 0.0 0.00 0.00 58.5 55.9 0.0
5/25/20 - 0100 58.8 58.6 89 55.6 58.2 NW | 311 1.6 4.7 0.0 0.00 0.00 89.4 46.8 3.2
5/25/20 - 0000 61.8 61.4 79 55.3 59.0 NNW | 344 2.0 5.2 0.0 0.00 0.00 89.4 46.8 3.2
5/24/20 - 2300 66.6 66.2 63 53.6 59.4 NNE | 27 2.1 5.8 0.0 0.00 0.00 89.4 46.8 3.2
5/24/20 - 2200 69.8 69.5 56 53.2 60.0 NNE | 25 3.6 8.3 0.0 0.00 0.00 89.4 46.8 3.2
5/24/20 - 2100 76.0 75.7 36 46.9 58.2 NW | 310 3.9 12.8 0.0 0.00 0.00 89.4 46.8 3.2
5/24/20 - 2000 81.3 81.2 28 45.0 58.5 WNW | 292 7.0 16.6 0.0 0.00 0.00 89.4 46.8 3.2
5/24/20 - 1900 84.3 84.2 27 47.0 60.0 WNW | 293 8.0 15.4 0.0 0.00 0.00 89.4 46.8 3.2
5/24/20 - 1800 85.8 85.7 26 46.8 60.2 WNW | 293 8.4 16.3 0.0 0.00 0.00 89.4 46.8 3.2
5/24/20 - 1700 87.9 86.9 17 38.3 57.4 SSW | 210 4.6 9.5 0.0 0.00 0.00 89.4 46.8 3.2
5/24/20 - 1600 87.4 86.0 17 36.9 56.8 SE | 146 6.0 10.4 0.0 0.00 0.00 88.4 46.8 3.2
5/24/20 - 1500 86.0 85.1 17 36.1 56.2 SSE | 148 4.8 10.3 0.0 0.00 0.00 88.2 46.8 3.2
5/24/20 - 1400 83.9 83.3 17 34.6 55.3 SE | 145 4.5 8.6 0.0 0.00 0.00 85.3 46.8 3.2
5/24/20 - 1300 81.3 80.4 21 37.4 55.7 SSE | 153 4.1 7.5 0.0 0.00 0.00 83.4 46.8 3.2
5/24/20 - 1200 77.5 76.2 35 47.8 59.1 SSE | 153 4.5 7.2 0.0 0.00 0.00 79.1 46.8 3.2
5/24/20 - 1100 74.3 73.6 44 50.9 59.8 SSE | 166 2.2 6.6 0.0 0.00 0.00 76.9 46.8 3.2
5/24/20 - 1000 68.7 67.8 55 52.0 59.0 SSE | 158 2.6 7.1 0.0 0.00 0.00 70.1 46.8 3.2
5/24/20 - 0900 63.8 63.4 66 52.0 57.5 ESE | 123 1.6 4.5 0.0 0.00 0.00 66.7 46.8 3.2
5/24/20 - 0800 55.7 56.3 87 51.8 54.4 NE | 50 0.8 4.1 0.0 0.00 0.00 60.3 46.8 3.2
5/24/20 - 0700 48.3 48.5 100 48.3 49.0 NE | 34 1.2 3.8 59.6 0.00 0.00 52.7 46.8 3.2
5/24/20 - 0600 47.4 47.4 100 47.5 48.1 NNW | 348 0.8 2.8 60.0 0.00 0.00 52.7 47.0 2.2
5/24/20 - 0500 48.1 48.0 100 48.1 48.8 NNW | 346 1.0 3.6 60.0 0.00 0.00 52.7 47.3 1.2
5/24/20 - 0400 48.6 48.5 100 48.6 49.4 NW | 305 0.9 3.0 11.3 0.00 0.00 52.7 48.1 0.2
5/24/20 - 0300 49.6 49.5 100 49.6 50.4 NW | 310 0.9 3.8 0.0 0.00 0.00 52.7 49.1 0.0
5/24/20 - 0200 51.3 51.1 98 50.8 52.0 NNW | 327 1.4 3.4 0.0 0.00 0.00 52.7 50.1 0.0
5/24/20 - 0100 53.4 53.2 91 50.7 52.8 NW | 307 1.6 3.5 0.0 0.00 0.00 79.1 39.8 6.1
5/24/20 - 0000 56.4 56.0 82 51.0 54.2 NNW | 342 1.1 6.3 0.0 0.00 0.00 79.1 39.8 6.1
5/23/20 - 2300 58.9 58.7 76 51.4 55.4 N | 6 1.8 5.4 0.0 0.00 0.00 79.1 39.8 6.1
5/23/20 - 2200 65.0 64.6 49 45.3 54.2 NNW | 345 4.0 9.6 0.0 0.00 0.00 79.1 39.8 6.1
5/23/20 - 2100 67.5 67.3 44 44.6 54.6 WNW | 284 4.6 10.9 0.0 0.00 0.00 79.1 39.8 6.1
5/23/20 - 2000 71.4 71.2 38 44.2 55.6 WNW | 287 7.0 17.0 0.0 0.00 0.00 79.1 39.8 6.1
Max 91.9 91.9 100 57.0 64.0 - 8.4 17.0 60.0 0.00 0.00 92.9 55.9 6.1
Avg 69.9 69.6 58 49.5 57.4 - 3.3 7.8 5.8 0.00 - - - -
Min 47.4 47.4 17 34.6 48.1 - 0.6 2.1 0.0 0.00 0.00 52.7 39.8 0.0
Total - - - - - - - - - 0.00 - - - -

Last 30 Days

Upper Lake

Daily Data | America/Los_Angeles
as of 5/25/20 8:27 PM PDT
Date Daily Max Temp (°F) Max Temp Time Daily Min Temp (°F) Min Temp Time Daily Rain (In) Storm Total (In) Monthly Rain (In) Seasonal Rainfall (In) Wind Spd (mph) Daily Max Wind (mph) Max Wind Time Max Wind Dir (°) Dew Pt (°F) Max RH (%) Min RH (%) Hrs <= 32F (hrs) Hrs <= 28F (hrs) Chilling <=45F (hrs) Chill Hrs 32-45F (hrs) Utah Chilling (Units) GDDs (DL) GDDs (Mx/Mn) Seas GDDs (DL) Seasonal GDDs (Mx/Mn) Hrs 70-85F (hrs) Hrs > 95F (hrs) Powdery Mildew Stress (pts) Degree Hrs (hrs) Max Temp2 (°F) Min Temp2 (°F) Bat Volt Min Day (V)
5/24/20 89.4 1616 46.8 0629 0.00 - 1.49 16.53 3.3 16.5 1913 WNW | 292 47.3 100 13 0.0 0.0 0.0 0.0 0.0 18.8 18.1 475 426 4.43 0.00 30 200.8 88.1 46.5 12.4
5/23/20 79.1 1523 39.8 0616 0.00 - 1.49 16.53 3.7 19.1 1737 NW | 310 42.6 100 16 0.0 0.0 4.9 4.9 0.5 13.2 9.4 456 408 8.70 0.00 10 99.3 79.6 39.6 12.4
5/22/20 71.1 1535 45.8 0623 0.00 - 1.49 16.53 7.7 22.2 1752 W | 280 42.8 100 27 0.0 0.0 0.0 0.0 2.0 8.3 8.5 443 399 0.58 0.00 20 22.7 72.6 44.9 12.4
5/21/20 76.0 1459 44.8 0617 0.00 - 1.49 16.53 5.5 26.2 1730 NW | 314 47.8 100 26 0.0 0.0 0.2 0.2 0.0 11.4 10.4 435 390 7.09 0.00 0 63.7 76.5 44.7 12.4
5/20/20 71.0 1559 42.7 0603 0.00 1.15 1.49 16.53 3.9 16.3 1917 NW | 306 49.1 100 40 0.0 0.0 2.6 2.6 0.5 9.0 6.9 423 380 0.89 0.00 0 27.2 71.9 42.5 12.4
5/19/20 64.2 1521 42.0 0508 0.01 1.15 1.49 16.53 5.5 21.8 1632 WNW | 295 47.6 100 53 0.0 0.0 6.2 6.2 2.0 5.0 3.1 414 373 0.00 0.00 10 0.0 64.8 41.8 12.4
5/18/20 56.4 1023 44.8 0059 0.39 1.14 1.48 16.52 2.5 14.2 1501 NNE | 27 49.6 100 68 0.0 0.0 0.1 0.1 5.0 1.9 0.6 409 370 0.00 0.00 20 0.0 57.0 44.6 12.4
5/17/20 63.2 1236 49.8 0037 0.51 0.75 1.09 16.13 3.3 18.1 1612 S | 170 52.4 100 52 0.0 0.0 0.0 0.0 2.5 5.5 6.5 408 369 0.00 0.00 30 0.0 62.8 49.8 12.4
5/16/20 70.0 1423 47.7 0521 0.24 0.24 0.58 15.62 3.6 15.1 1737 SSW | 200 49.7 100 45 0.0 0.0 0.0 0.0 0.0 8.6 8.8 402 363 0.00 0.00 40 13.8 70.0 47.4 12.4
5/15/20 73.4 1558 43.2 0552 0.00 - 0.34 15.38 4.7 20.7 1802 WNW | 300 45.6 100 30 0.0 0.0 1.8 1.8 0.0 10.1 8.3 393 354 3.49 0.00 50 34.2 73.8 43.0 12.4
5/14/20 66.5 1550 45.7 0114 0.00 - 0.34 15.38 3.9 16.0 2057 NNW | 334 48.8 100 46 0.0 0.0 0.0 0.0 0.5 6.5 6.1 383 346 0.00 0.00 60 0.0 66.5 45.4 12.4
5/13/20 61.4 1535 44.1 0404 0.00 0.30 0.34 15.38 2.6 16.8 1936 NNW | 330 48.6 100 61 0.0 0.0 2.3 2.3 2.5 3.0 2.8 377 340 0.00 0.00 70 0.0 61.2 43.9 12.4
5/12/20 58.8 1355 44.3 0046 0.11 0.30 0.34 15.38 3.4 18.2 1715 NW | 313 50.5 100 68 0.0 0.0 0.7 0.7 4.0 3.0 1.6 374 337 0.00 0.00 80 0.0 58.8 43.9 12.4
5/11/20 60.2 1800 43.3 0622 0.19 0.19 0.23 15.27 2.6 11.8 1633 WSW | 240 47.0 100 32 0.0 0.0 1.7 1.7 2.5 2.7 1.8 371 335 0.00 0.00 90 0.0 59.2 43.4 12.4
5/10/20 80.7 1522 47.2 0517 0.00 - 0.04 15.08 4.2 22.0 1657 NW | 322 43.3 100 18 0.0 0.0 0.0 0.0 1.0 13.7 14.0 368 333 9.08 0.00 70 111.5 81.3 46.7 12.4
5/9/20 92.0 1616 45.9 0620 0.00 - 0.04 15.08 3.1 15.8 1913 W | 274 44.6 100 8 0.0 0.0 0.0 0.0 0.5 18.3 18.9 354 319 3.42 0.00 80 208.8 90.7 45.7 12.4
5/8/20 93.2 1645 43.8 0624 0.00 - 0.04 15.08 2.3 14.9 1826 WNW | 302 42.9 100 8 0.0 0.0 1.2 1.2 0.0 18.8 18.5 336 300 2.92 0.00 90 217.5 91.7 43.7 12.3
5/7/20 90.0 1753 40.7 0635 0.00 - 0.04 15.08 3.0 17.0 1903 WNW | 288 37.0 100 6 0.0 0.0 4.4 4.4 0.5 17.0 15.3 317 282 3.76 0.00 100 188.1 88.4 40.5 12.4
5/6/20 78.7 1559 47.8 0057 0.00 - 0.04 15.08 6.8 23.0 0246 WNW | 298 38.0 90 15 0.0 0.0 0.0 0.0 1.0 12.0 13.2 300 267 7.75 0.00 100 85.3 79.2 46.9 12.4
5/5/20 77.2 1443 36.7 0624 0.00 - 0.04 15.08 5.5 24.7 1904 WNW | 283 41.6 98 21 0.0 0.0 6.2 6.2 2.0 10.6 7.0 288 253 7.38 0.00 100 70.0 77.9 36.8 12.4
5/4/20 78.3 1440 34.5 0616 0.00 - 0.04 15.08 3.6 19.2 1812 W | 273 31.2 100 8 0.0 0.0 6.9 6.9 2.0 11.2 6.4 278 246 7.67 0.00 80 84.5 79.3 34.4 12.4
5/3/20 69.7 1534 34.4 0622 0.00 0.04 0.04 15.08 4.7 20.2 1624 NW | 317 36.5 100 19 0.0 0.0 8.2 8.2 2.5 6.5 2.0 266 240 0.02 0.00 90 10.8 70.5 34.4 12.4
5/2/20 64.9 1342 46.5 0254 0.04 0.04 0.04 15.08 5.0 17.0 1822 WNW | 300 50.2 100 56 0.0 0.0 0.0 0.0 3.0 5.2 5.7 260 238 0.00 0.00 100 0.0 64.6 45.8 12.4
5/1/20 75.5 1541 38.4 0615 0.00 - 0.00 15.04 6.0 21.6 1821 NW | 318 37.7 98 14 0.0 0.0 6.3 6.3 1.0 10.4 6.9 255 232 6.01 0.00 80 55.1 76.1 38.3 12.4
4/30/20 73.2 1419 43.8 0056 0.00 - 1.49 15.04 8.0 20.0 1852 NW | 314 40.7 100 21 0.0 0.0 0.4 0.4 2.0 9.6 8.5 244 225 3.20 0.00 90 31.5 73.4 43.4 12.4
4/29/20 74.2 1647 54.2 0619 0.00 - 1.49 15.04 7.5 26.3 1538 NW | 306 53.4 100 38 0.0 0.0 0.0 0.0 0.0 12.6 14.2 235 217 2.62 0.00 100 45.0 74.7 54.1 12.4
4/28/20 86.2 1539 49.7 0615 0.00 - 1.49 15.04 4.7 22.2 1721 NW | 307 53.4 100 27 0.0 0.0 0.0 0.0 0.0 17.6 17.9 222 203 10.25 0.00 100 151.7 86.2 49.5 12.4
4/27/20 76.2 1532 44.7 0606 0.00 - 1.49 15.04 9.3 27.7 1151 NW | 323 44.9 90 22 0.0 0.0 0.3 0.3 -14.0 13.7 10.5 205 185 7.39 0.00 100 71.2 76.5 44.7 12.4
4/26/20 77.2 1532 45.9 0616 0.00 - 1.49 15.04 7.3 27.1 1811 NW | 315 37.2 100 13 0.0 0.0 0.0 0.0 0.0 13.4 11.5 191 174 7.51 0.00 90 80.2 77.5 45.7 12.4
4/25/20 81.4 1512 50.8 0634 0.00 - 1.49 15.04 6.0 22.0 1028 WNW | 296 49.3 98 24 0.0 0.0 0.0 0.0 0.0 14.7 16.1 178 163 8.37 0.00 70 102.8 82.0 50.4 12.4
Max 93.2 - 54.2 - 0.51 1.15 1.49 - 9.3 27.7 - - 53.4 100 68 0.0 0.0 8.2 8.2 5.0 18.8 18.9 - - 10.25 0.00 100 217.5 91.7 54.1 12.4
Avg - - - - - 0.53 0.77 - 4.8 - - - 45.0 - - 0.0 0.0 1.8 1.8 0.8 10.4 9.3 - - 3.75 0.00 - - - - -
Min 56.4 - 34.4 - 0.00 0.04 0.00 - 2.3 11.8 - - 31.2 90 6 0.0 0.0 0.0 0.0 -14.0 1.9 0.6 - - 0.00 0.00 0 0.0 57.0 34.4 12.3
Total - - - - - - - - - - - - - - - 0.0 0.0 54.3 54.3 23.5 312.3 279.6 - - 112.56 0.00 - - - - -

Chilling & Growing Degree Days

Upper Lake

Daily Data | America/Los_Angeles
as of 5/25/20 8:27 PM PDT
Date Chilling <=45F (hrs) Chill Hrs 32-45F (hrs) Utah Chilling (Units) GDDs (DL) GDDs (Mx/Mn) Seas GDDs (DL) Seasonal GDDs (Mx/Mn)
5/24/20 0.0 0.0 0.0 18.8 18.1 475 426
5/23/20 4.9 4.9 0.5 13.2 9.4 456 408
5/22/20 0.0 0.0 2.0 8.3 8.5 443 399
5/21/20 0.2 0.2 0.0 11.4 10.4 435 390
5/20/20 2.6 2.6 0.5 9.0 6.9 423 380
5/19/20 6.2 6.2 2.0 5.0 3.1 414 373
5/18/20 0.1 0.1 5.0 1.9 0.6 409 370
Max 6.2 6.2 5.0 18.8 18.1 - -
Avg 2.0 2.0 1.4 9.7 8.2 - -
Min 0.0 0.0 0.0 1.9 0.6 - -
Total 14.0 14.0 10.0 67.6 57.1 - -
Calm: 0.0%

Upper Lake Climate Summary

Current Year

Current Year | Showing 1/1/20 - 5/24/20
as of 5/25/20 8:27 PM PDT
Temperature (°F) Precip (in) Days
Month Days Avg Max Avg Min Max Max Min Min Total Daily Min Temp < 28 Daily Min Temp < 32 Daily Max Temp > 90 Daily Max Temp > 100 Daily Rain > 0.01 Daily Rain > 0.1
Jan 2020 31 55.3 34.7 71.4 26.1 3.74 3 13 0 0 17 11
Feb 2020 29 67.3 31.5 77.7 24.4 0 2 18 0 0 0 0
Mar 2020 31 60.7 34.8 81 28.2 1.51 0 8 0 0 9 6
Apr 2020 30 70.7 42.8 86.2 27.9 1.49 1 2 0 0 5 4
May 2020 24 73.4 43.4 93.2 34.4 1.49 0 0 2 0 6 5
Total 145 - - - - 8.23 6 41 2 0 37 26
Average 29 65.5 37.4 - - 1.65 1.2 8.2 0.4 0 7.4 5.2
Maximum 31 73.4 43.4 93.2 - 3.74 3 18 2 0 17 11
Minimum 24 55.3 31.5 - 24.4 0 0 0 0 0 0 0

Upper Lake Climate Summary

Last Year

Last Year | Showing 1/1/19 - 12/31/19
as of 5/25/20 8:27 PM PDT
Temperature (°F) Precip (in) Days
Month Days Avg Max Avg Min Max Max Min Min Total Daily Min Temp < 28 Daily Min Temp < 32 Daily Max Temp > 90 Daily Max Temp > 100 Daily Rain > 0.01 Daily Rain > 0.1
Jan 2019 31 57.8 36.4 71.8 24.8 9.44 3 9 0 0 11 11
Feb 2019 28 49.6 34 57.1 23 15.92 8 12 0 0 19 16
Mar 2019 31 59.4 37.1 74 27.9 6.68 1 4 0 0 15 11
Apr 2019 30 71.5 44.9 89.7 37.6 0.94 0 0 0 0 8 2
May 2019 31 73.7 44.5 86.5 35.8 3.63 0 0 0 0 9 5
Jun 2019 30 87.2 50.8 97 39.1 0.01 0 0 12 0 0 0
Jul 2019 31 89.9 53.2 97.5 47.9 0.03 0 0 17 0 1 0
Aug 2019 31 91.7 53.8 98.8 48 0.01 0 0 21 0 0 0
Sep 2019 30 83.1 46.8 97.4 33.5 0.24 0 0 11 0 3 1
Oct 2019 31 77 34.1 88.6 22.1 0.03 4 10 0 0 1 0
Nov 2019 30 69.8 32.5 82.9 23.7 1.66 6 15 0 0 3 3
Dec 2019 31 53.7 37.7 61.9 24 6.33 4 10 0 0 17 10
Total 365 - - - - 44.92 26 60 61 0 87 59
Average 30.4 72 42.2 - - 3.74 2.2 5 5.1 0 7.2 4.9
Maximum 31 91.7 53.8 98.8 - 15.92 8 15 21 0 19 16
Minimum 28 49.6 32.5 - 22.1 0.01 0 0 0 0 0 0